createdAt,value
2023-03-17T00:01:55.952Z,0.90
2023-03-17T00:04:25.098Z,1.90
2023-03-17T00:06:53.101Z,1.93
2023-03-17T00:09:22.366Z,2.27
2023-03-17T00:11:50.111Z,1.80
2023-03-17T00:14:18.151Z,1.33
2023-03-17T00:16:50.267Z,1.37
2023-03-17T00:19:33.635Z,2.00
2023-03-17T00:22:02.476Z,1.60
2023-03-17T00:24:29.887Z,2.03
2023-03-17T00:26:57.172Z,1.57
2023-03-17T00:29:25.848Z,1.33
2023-03-17T00:31:53.730Z,1.53
2023-03-17T00:34:21.628Z,0.90
2023-03-17T00:36:50.666Z,1.40
2023-03-17T00:39:18.644Z,1.60
2023-03-17T00:44:12.828Z,0.93
2023-03-17T00:46:41.534Z,2.37
2023-03-17T00:51:44.705Z,2.43
2023-03-17T00:54:12.587Z,2.47
2023-03-17T00:56:41.625Z,1.33
2023-03-17T00:59:30.585Z,1.43
2023-03-17T01:01:58.011Z,1.67
2023-03-17T01:04:25.647Z,1.70
2023-03-17T01:06:53.068Z,1.33
2023-03-17T01:09:22.268Z,1.43
2023-03-17T01:11:49.290Z,1.77
2023-03-17T01:14:16.810Z,2.17
2023-03-17T01:16:44.858Z,2.47
2023-03-17T01:19:13.557Z,1.40
2023-03-17T01:21:41.622Z,1.33
2023-03-17T01:24:09.735Z,1.07
2023-03-17T01:26:36.819Z,1.60
2023-03-17T01:29:04.865Z,1.47
2023-03-17T01:31:31.897Z,3.60
2023-03-17T01:33:58.752Z,2.00
2023-03-17T01:36:26.214Z,1.07
2023-03-17T01:38:53.780Z,2.57
2023-03-17T01:41:21.131Z,2.03
2023-03-17T01:43:48.105Z,1.03
2023-03-17T01:46:31.446Z,1.77
2023-03-17T01:49:07.319Z,1.53
2023-03-17T01:51:39.156Z,1.20
2023-03-17T01:54:11.946Z,1.23
2023-03-17T01:56:40.843Z,2.13
2023-03-17T01:59:09.667Z,1.23
2023-03-17T02:01:43.974Z,1.97
2023-03-17T02:04:12.007Z,1.23
2023-03-17T02:06:55.188Z,1.50
2023-03-17T02:09:24.017Z,1.40
2023-03-17T02:11:51.268Z,1.67
2023-03-17T02:14:18.076Z,1.37
2023-03-17T02:16:45.749Z,1.17
2023-03-17T02:19:12.771Z,1.53
2023-03-17T02:21:43.915Z,2.03
2023-03-17T02:24:20.930Z,0.90
2023-03-17T02:26:50.274Z,1.73
2023-03-17T02:29:18.901Z,1.27
2023-03-17T02:31:45.797Z,1.80
2023-03-17T02:34:12.616Z,1.13
2023-03-17T02:36:40.005Z,1.77
2023-03-17T02:39:07.282Z,1.40
2023-03-17T02:41:34.759Z,1.33
2023-03-17T02:44:02.440Z,1.60
2023-03-17T02:46:29.335Z,1.40
2023-03-17T02:48:56.805Z,2.63
2023-03-17T02:51:23.946Z,1.73
2023-03-17T02:53:50.784Z,1.90
2023-03-17T02:56:17.619Z,1.97
2023-03-17T02:58:44.597Z,2.43
2023-03-17T03:01:11.987Z,1.40
2023-03-17T03:03:39.241Z,1.70
2023-03-17T03:06:06.822Z,2.13
2023-03-17T03:08:33.786Z,1.07
2023-03-17T03:11:02.496Z,2.10
2023-03-17T03:13:29.665Z,2.87
2023-03-17T03:15:56.683Z,1.93
2023-03-17T03:18:24.263Z,1.67
2023-03-17T03:20:51.521Z,2.40
2023-03-17T03:23:18.770Z,2.50
2023-03-17T03:25:46.226Z,2.13
2023-03-17T03:28:13.172Z,2.40
2023-03-17T03:30:41.140Z,2.20
2023-03-17T03:33:08.186Z,1.80
2023-03-17T03:35:35.446Z,2.10
2023-03-17T03:38:02.439Z,2.17
2023-03-17T03:40:29.771Z,2.60
2023-03-17T03:42:56.915Z,1.37
2023-03-17T03:45:24.041Z,1.53
2023-03-17T03:47:51.133Z,1.33
2023-03-17T03:50:18.734Z,2.20
2023-03-17T03:52:45.558Z,2.43
2023-03-17T03:55:12.473Z,2.47
2023-03-17T03:57:39.416Z,1.73
2023-03-17T04:00:07.604Z,1.50
2023-03-17T04:02:34.752Z,1.20
2023-03-17T04:05:01.951Z,3.60
2023-03-17T04:07:29.328Z,1.57
2023-03-17T04:09:57.023Z,2.33
2023-03-17T04:12:23.887Z,2.00
2023-03-17T04:14:50.938Z,1.80
2023-03-17T04:17:17.998Z,2.03
2023-03-17T04:19:44.861Z,1.57
2023-03-17T04:22:12.212Z,2.70
2023-03-17T04:24:39.363Z,1.57
2023-03-17T04:27:06.802Z,0.63
2023-03-17T04:29:34.466Z,1.30
2023-03-17T04:32:02.312Z,1.77
2023-03-17T04:34:29.540Z,1.77
2023-03-17T04:36:56.442Z,2.10
2023-03-17T04:39:23.803Z,1.23
2023-03-17T04:41:50.943Z,1.60
2023-03-17T04:44:17.803Z,1.80
2023-03-17T04:46:44.740Z,1.57
2023-03-17T04:49:12.064Z,1.63
2023-03-17T04:51:39.122Z,1.70
2023-03-17T04:54:08.337Z,2.17
2023-03-17T04:56:36.467Z,2.47
2023-03-17T04:59:03.663Z,2.20
2023-03-17T05:01:31.093Z,1.00
2023-03-17T05:03:57.930Z,1.37
2023-03-17T05:06:25.104Z,2.60
2023-03-17T05:08:52.969Z,1.13
2023-03-17T05:11:20.216Z,2.13
2023-03-17T05:13:47.261Z,2.40
2023-03-17T05:16:14.201Z,1.77
2023-03-17T05:18:42.005Z,1.67
2023-03-17T05:21:08.935Z,2.03
2023-03-17T05:23:36.392Z,1.83
2023-03-17T05:26:03.260Z,1.27
2023-03-17T05:28:30.579Z,1.37
2023-03-17T05:30:57.886Z,2.17
2023-03-17T05:33:24.963Z,1.67
2023-03-17T05:35:52.430Z,2.37
2023-03-17T05:38:19.330Z,1.00
2023-03-17T05:40:49.012Z,1.40
2023-03-17T05:43:15.824Z,2.23
2023-03-17T05:45:43.116Z,1.77
2023-03-17T05:48:09.984Z,3.70
2023-03-17T05:50:37.312Z,2.30
2023-03-17T05:53:04.138Z,1.00
2023-03-17T05:55:31.184Z,2.70
2023-03-17T05:57:58.280Z,1.80
2023-03-17T06:00:25.373Z,1.63
2023-03-17T06:02:52.181Z,1.40
2023-03-17T06:05:19.022Z,1.30
2023-03-17T06:07:53.978Z,1.40
2023-03-17T06:10:23.109Z,2.13
2023-03-17T06:12:49.892Z,1.97
2023-03-17T06:15:17.256Z,1.47
2023-03-17T06:17:44.575Z,1.17
2023-03-17T06:20:13.025Z,0.60
2023-03-17T06:22:51.706Z,1.10
2023-03-17T06:25:27.221Z,1.67
2023-03-17T06:27:56.207Z,1.80
2023-03-17T06:30:23.145Z,0.77
2023-03-17T06:32:51.189Z,1.43
2023-03-17T06:35:18.192Z,1.13
2023-03-17T06:37:45.040Z,2.07
2023-03-17T06:40:12.681Z,1.97
2023-03-17T06:42:39.512Z,1.47
2023-03-17T06:45:06.918Z,1.53
2023-03-17T06:47:35.407Z,1.33
2023-03-17T06:50:02.314Z,1.43
2023-03-17T06:52:29.222Z,2.07
2023-03-17T06:54:56.061Z,1.27
2023-03-17T06:57:22.957Z,0.60
2023-03-17T06:59:49.848Z,1.70
2023-03-17T07:02:16.797Z,1.60
2023-03-17T07:04:43.791Z,2.70
2023-03-17T07:07:10.939Z,1.93
2023-03-17T07:09:37.873Z,1.17
2023-03-17T07:12:05.169Z,1.07
2023-03-17T07:14:34.118Z,2.17
2023-03-17T07:17:01.943Z,0.97
2023-03-17T07:19:28.981Z,1.97
2023-03-17T07:21:56.447Z,1.70
2023-03-17T07:24:24.728Z,1.80
2023-03-17T07:26:51.689Z,1.37
2023-03-17T07:29:18.618Z,1.43
2023-03-17T07:31:45.901Z,0.90
2023-03-17T07:34:12.884Z,1.20
2023-03-17T07:36:40.002Z,2.13
2023-03-17T07:39:06.930Z,0.90
2023-03-17T07:41:34.081Z,1.30
2023-03-17T07:44:01.841Z,1.63
2023-03-17T07:46:28.771Z,1.53
2023-03-17T07:48:55.724Z,1.50
2023-03-17T07:51:27.641Z,1.27
2023-03-17T07:54:03.235Z,2.47
2023-03-17T07:56:31.308Z,0.53
2023-03-17T07:58:59.151Z,1.10
2023-03-17T08:01:30.516Z,1.07
2023-03-17T08:03:57.688Z,1.27
2023-03-17T08:06:27.658Z,1.63
2023-03-17T08:08:55.242Z,1.53
2023-03-17T08:11:23.447Z,1.10
2023-03-17T08:13:51.103Z,1.10
2023-03-17T08:16:17.959Z,1.30
2023-03-17T08:18:45.031Z,1.03
2023-03-17T08:21:14.097Z,0.97
2023-03-17T08:23:42.446Z,0.53
2023-03-17T08:26:09.439Z,1.03
2023-03-17T08:28:36.552Z,1.53
2023-03-17T08:31:16.081Z,1.10
2023-03-17T08:33:46.215Z,0.93
2023-03-17T08:36:13.428Z,1.03
2023-03-17T08:38:41.920Z,1.40
2023-03-17T08:41:13.268Z,0.90
2023-03-17T08:43:42.087Z,1.23
2023-03-17T08:46:17.950Z,0.63
2023-03-17T08:48:46.809Z,0.60
2023-03-17T08:51:16.398Z,0.30
2023-03-17T08:53:45.806Z,0.30
2023-03-17T08:56:14.116Z,0.47
2023-03-17T08:58:42.702Z,1.20
2023-03-17T09:01:10.880Z,0.70
2023-03-17T09:03:39.472Z,0.60
2023-03-17T09:06:07.945Z,0.80
2023-03-17T09:08:38.746Z,0.30
2023-03-17T09:11:07.511Z,0.40
2023-03-17T09:13:35.302Z,0.40
2023-03-17T09:16:02.805Z,0.30
2023-03-17T09:18:31.447Z,0.50
2023-03-17T09:20:58.784Z,0.30
2023-03-17T09:23:26.005Z,0.20
2023-03-17T09:25:52.890Z,0.27
2023-03-17T09:28:20.180Z,1.03
2023-03-17T09:30:47.285Z,0.80
2023-03-17T09:33:14.693Z,0.53
2023-03-17T09:35:41.978Z,0.60
2023-03-17T09:38:10.075Z,1.63
2023-03-17T09:40:45.202Z,0.97
2023-03-17T09:43:12.029Z,0.63
2023-03-17T09:45:43.467Z,0.80
2023-03-17T09:48:31.369Z,0.40
2023-03-17T09:51:14.645Z,1.00
2023-03-17T09:54:02.405Z,0.40
2023-03-17T09:56:32.738Z,0.93
2023-03-17T09:59:08.651Z,0.67
2023-03-17T10:01:36.735Z,0.40
2023-03-17T10:04:04.146Z,0.80
2023-03-17T10:06:36.468Z,0.50
2023-03-17T10:09:08.114Z,0.50
2023-03-17T10:11:48.851Z,0.50
2023-03-17T10:14:38.355Z,0.67
2023-03-17T10:17:15.759Z,0.50
2023-03-17T10:19:55.995Z,0.60
2023-03-17T10:22:48.841Z,1.00
2023-03-17T10:25:23.812Z,0.60
2023-03-17T10:28:28.091Z,0.80
2023-03-17T10:30:57.689Z,0.40
2023-03-17T10:33:25.767Z,0.77
2023-03-17T10:35:53.012Z,0.47
2023-03-17T10:38:22.157Z,0.60
2023-03-17T10:41:16.748Z,0.27
2023-03-17T10:43:50.932Z,0.40
2023-03-17T10:46:26.207Z,0.50
2023-03-17T10:49:17.492Z,0.57
2023-03-17T10:51:46.764Z,0.60
2023-03-17T10:54:18.654Z,0.63
2023-03-17T10:56:49.349Z,1.03
2023-03-17T10:59:20.867Z,0.80
2023-03-17T11:02:05.681Z,0.60
2023-03-17T11:04:39.372Z,0.70
2023-03-17T11:07:39.691Z,0.77
2023-03-17T11:10:23.956Z,0.80
2023-03-17T11:13:02.162Z,1.03
2023-03-17T11:15:36.603Z,1.33
2023-03-17T11:18:28.702Z,0.33
2023-03-17T11:21:01.986Z,0.40
2023-03-17T11:23:48.650Z,0.63
2023-03-17T11:26:30.530Z,0.83
2023-03-17T11:29:15.484Z,0.77
2023-03-17T11:32:01.025Z,0.90
2023-03-17T11:34:45.596Z,0.67
2023-03-17T11:37:41.601Z,0.33
2023-03-17T11:40:27.247Z,0.77
2023-03-17T11:43:06.147Z,0.60
2023-03-17T11:45:49.984Z,0.50
2023-03-17T11:48:28.464Z,0.63
2023-03-17T11:51:09.872Z,0.50
2023-03-17T11:53:45.149Z,0.50
2023-03-17T11:56:21.221Z,0.53
2023-03-17T11:58:56.710Z,1.00
2023-03-17T12:01:28.335Z,0.50
2023-03-17T12:04:16.506Z,0.80
2023-03-17T12:06:50.736Z,0.60
2023-03-17T12:09:34.483Z,0.40
2023-03-17T12:12:04.224Z,0.47
2023-03-17T12:14:38.349Z,0.60
2023-03-17T12:17:14.092Z,0.70
2023-03-17T12:20:12.528Z,1.47
2023-03-17T12:22:47.013Z,1.03
2023-03-17T12:25:21.647Z,0.57
2023-03-17T12:28:11.257Z,1.20
2023-03-17T12:30:54.371Z,1.30
2023-03-17T12:33:39.433Z,0.87
2023-03-17T12:36:09.724Z,0.97
2023-03-17T12:38:58.849Z,0.40
2023-03-17T12:41:42.724Z,0.77
2023-03-17T12:44:21.736Z,0.77
2023-03-17T12:47:32.275Z,0.50
2023-03-17T12:50:06.984Z,1.43
2023-03-17T12:52:33.789Z,0.83
2023-03-17T12:55:09.762Z,0.47
2023-03-17T12:57:48.255Z,0.60
2023-03-17T13:00:19.302Z,0.50
2023-03-17T13:02:50.933Z,0.73
2023-03-17T13:05:28.501Z,0.57
2023-03-17T13:07:59.667Z,0.70
2023-03-17T13:10:37.484Z,1.00
2023-03-17T13:13:11.405Z,0.70
2023-03-17T13:15:39.691Z,0.57
2023-03-17T13:18:12.546Z,0.37
2023-03-17T13:20:41.787Z,0.70
2023-03-17T13:23:13.780Z,0.67
2023-03-17T13:25:46.571Z,0.97
2023-03-17T13:28:13.430Z,0.47
2023-03-17T13:30:40.303Z,0.65
2023-03-17T13:33:10.105Z,0.63
2023-03-17T13:35:49.004Z,0.50
2023-03-17T13:38:27.310Z,0.80
2023-03-17T13:40:54.149Z,0.80
2023-03-17T13:43:23.693Z,0.32
2023-03-17T13:45:50.894Z,0.63
2023-03-17T13:48:29.731Z,1.33
2023-03-17T13:51:22.357Z,0.50
2023-03-17T13:53:54.185Z,1.05
2023-03-17T13:56:46.836Z,0.85
2023-03-17T13:59:16.939Z,0.50
2023-03-17T14:01:57.903Z,0.70
2023-03-17T14:04:44.783Z,0.68
2023-03-17T14:07:18.724Z,1.38
2023-03-17T14:09:46.306Z,0.93
2023-03-17T14:12:39.529Z,0.82
2023-03-17T14:15:21.676Z,1.08
2023-03-17T14:17:54.021Z,0.90
2023-03-17T14:20:27.140Z,0.93
2023-03-17T14:23:01.890Z,0.55
2023-03-17T14:25:38.333Z,0.60
2023-03-17T14:28:10.986Z,0.90
2023-03-17T14:30:39.013Z,0.80
2023-03-17T14:33:11.993Z,1.35
2023-03-17T14:35:44.463Z,0.90
2023-03-17T14:38:37.793Z,0.73
2023-03-17T14:41:06.962Z,0.63
2023-03-17T14:43:35.801Z,1.00
2023-03-17T14:46:05.291Z,0.60
2023-03-17T14:48:35.483Z,0.47
2023-03-17T14:51:30.876Z,0.90
2023-03-17T14:54:01.129Z,0.80
2023-03-17T14:56:36.873Z,1.10
2023-03-17T14:59:18.125Z,0.83
2023-03-17T15:01:48.633Z,1.10
2023-03-17T15:04:22.001Z,0.87
2023-03-17T15:06:54.681Z,0.80
2023-03-17T15:09:31.807Z,1.00
2023-03-17T15:12:23.237Z,0.93
2023-03-17T15:14:54.492Z,0.50
2023-03-17T15:17:26.370Z,0.83
2023-03-17T15:19:57.708Z,1.67
2023-03-17T15:22:39.352Z,0.83
2023-03-17T15:25:38.342Z,1.00
2023-03-17T15:28:16.757Z,1.30
2023-03-17T15:30:48.043Z,0.60
2023-03-17T15:33:30.607Z,1.07
2023-03-17T15:36:00.073Z,0.63
2023-03-17T15:38:27.104Z,1.43
2023-03-17T15:40:54.709Z,1.03
2023-03-17T15:43:22.435Z,0.70
2023-03-17T15:45:59.801Z,1.43
2023-03-17T15:48:30.058Z,1.20
2023-03-17T15:51:00.035Z,1.57
2023-03-17T15:53:27.205Z,1.00
2023-03-17T15:55:54.278Z,0.70
2023-03-17T15:58:21.136Z,0.70
2023-03-17T16:00:53.266Z,1.00
2023-03-17T16:03:28.978Z,1.43
2023-03-17T16:05:55.952Z,0.70
2023-03-17T16:08:23.211Z,1.17
2023-03-17T16:10:50.374Z,1.03
2023-03-17T16:13:17.183Z,1.50
2023-03-17T16:15:52.791Z,1.83
2023-03-17T16:18:24.171Z,1.50
2023-03-17T16:20:52.332Z,1.93
2023-03-17T16:23:26.283Z,1.47
2023-03-17T16:25:57.191Z,2.30
2023-03-17T16:28:31.980Z,1.87
2023-03-17T16:31:01.176Z,1.27
2023-03-17T16:33:40.151Z,0.80
2023-03-17T16:36:07.389Z,1.27
2023-03-17T16:38:34.646Z,1.50
2023-03-17T16:41:09.298Z,1.20
2023-03-17T16:43:37.996Z,2.37
2023-03-17T16:46:07.075Z,0.93
2023-03-17T16:48:34.559Z,1.00
2023-03-17T16:51:01.546Z,1.83
2023-03-17T16:53:28.464Z,2.17
2023-03-17T16:55:56.065Z,2.50
2023-03-17T16:58:37.013Z,1.40
2023-03-17T17:01:11.392Z,0.60
2023-03-17T17:03:38.733Z,1.87
2023-03-17T17:06:07.135Z,1.30
2023-03-17T17:08:34.057Z,1.60
2023-03-17T17:11:01.040Z,1.50
2023-03-17T17:13:28.079Z,2.73
2023-03-17T17:15:55.842Z,2.53
2023-03-17T17:18:24.591Z,2.63
2023-03-17T17:20:53.488Z,5.27
2023-03-17T17:23:26.886Z,10.13
2023-03-17T17:25:54.972Z,10.27
2023-03-17T17:28:23.809Z,6.70
2023-03-17T17:30:52.067Z,6.60
2023-03-17T17:33:21.214Z,3.63
2023-03-17T17:35:48.934Z,2.67
2023-03-17T17:38:22.283Z,5.10
2023-03-17T17:40:50.138Z,3.47
2023-03-17T17:43:18.243Z,1.77
2023-03-17T17:45:48.621Z,2.83
2023-03-17T17:48:17.746Z,1.50
2023-03-17T17:50:44.949Z,2.10
2023-03-17T17:53:12.536Z,1.33
2023-03-17T17:55:41.676Z,1.53
2023-03-17T17:58:09.567Z,1.43
2023-03-17T18:00:36.526Z,1.73
2023-03-17T18:03:03.888Z,1.83
2023-03-17T18:05:32.438Z,2.37
2023-03-17T18:08:00.049Z,1.50
2023-03-17T18:10:29.729Z,1.40
2023-03-17T18:12:57.415Z,1.67
2023-03-17T18:15:25.743Z,1.57
2023-03-17T18:17:52.649Z,2.47
2023-03-17T18:20:21.907Z,1.60
2023-03-17T18:22:49.702Z,1.20
2023-03-17T18:25:17.439Z,1.17
2023-03-17T18:27:44.445Z,1.27
2023-03-17T18:30:14.792Z,0.90
2023-03-17T18:32:43.324Z,1.53
2023-03-17T18:35:15.898Z,1.83
2023-03-17T18:37:43.835Z,0.80
2023-03-17T18:40:16.361Z,1.33
2023-03-17T18:42:45.958Z,1.50
2023-03-17T18:45:13.916Z,2.90
2023-03-17T18:47:42.149Z,1.27
2023-03-17T18:50:11.997Z,1.67
2023-03-17T18:52:41.157Z,0.80
2023-03-17T18:55:10.165Z,1.40
2023-03-17T18:57:37.260Z,2.03
2023-03-17T19:00:06.065Z,1.20
2023-03-17T19:02:33.417Z,2.33
2023-03-17T19:05:00.865Z,2.07
2023-03-17T19:07:27.901Z,1.90
2023-03-17T19:09:55.165Z,1.63
2023-03-17T19:12:22.021Z,1.70
2023-03-17T19:14:48.948Z,2.70
2023-03-17T19:17:15.803Z,2.33
2023-03-17T19:19:42.612Z,2.40
2023-03-17T19:22:10.970Z,2.13
2023-03-17T19:24:38.038Z,1.07
2023-03-17T19:27:05.605Z,2.40
2023-03-17T19:29:33.477Z,2.73
2023-03-17T19:32:00.590Z,2.43
2023-03-17T19:34:27.609Z,2.00
2023-03-17T19:36:54.418Z,1.97
2023-03-17T19:39:21.715Z,2.53
2023-03-17T19:41:50.116Z,2.13
2023-03-17T19:44:17.079Z,1.33
2023-03-17T19:46:43.939Z,1.77
2023-03-17T19:49:11.589Z,2.57
2023-03-17T19:51:38.499Z,3.23
2023-03-17T19:54:05.488Z,2.17
2023-03-17T19:56:32.334Z,2.63
2023-03-17T19:58:59.432Z,2.80
2023-03-17T20:01:26.708Z,2.23
2023-03-17T20:03:53.697Z,1.33
2023-03-17T20:06:20.565Z,2.47
2023-03-17T20:08:48.010Z,2.73
2023-03-17T20:11:15.086Z,2.43
2023-03-17T20:13:41.951Z,2.03
2023-03-17T20:16:12.948Z,2.53
2023-03-17T20:18:39.888Z,1.67
2023-03-17T20:21:12.292Z,1.93
2023-03-17T20:23:39.164Z,2.10
2023-03-17T20:26:07.033Z,2.30
2023-03-17T20:28:34.217Z,2.40
2023-03-17T20:31:03.108Z,2.33
2023-03-17T20:33:31.634Z,2.67
2023-03-17T20:35:58.496Z,2.13
2023-03-17T20:38:25.721Z,2.30
2023-03-17T20:40:52.623Z,2.07
2023-03-17T20:43:19.441Z,4.23
2023-03-17T20:45:46.424Z,2.47
2023-03-17T20:48:13.348Z,1.50
2023-03-17T20:50:41.487Z,2.13
2023-03-17T20:53:08.707Z,2.00
2023-03-17T20:55:36.515Z,2.07
2023-03-17T20:58:04.004Z,1.90
2023-03-17T21:00:32.039Z,3.00
2023-03-17T21:02:59.000Z,1.70
2023-03-17T21:05:27.593Z,2.90
2023-03-17T21:07:54.560Z,2.00
2023-03-17T21:10:21.724Z,3.33
2023-03-17T21:12:48.644Z,2.77
2023-03-17T21:15:15.648Z,2.63
2023-03-17T21:17:43.137Z,2.07
2023-03-17T21:20:12.758Z,2.80
2023-03-17T21:22:40.180Z,3.37
2023-03-17T21:25:08.837Z,2.00
2023-03-17T21:27:39.573Z,2.37
2023-03-17T21:30:09.642Z,3.33
2023-03-17T21:32:36.683Z,3.37
2023-03-17T21:35:03.905Z,2.27
2023-03-17T21:37:31.034Z,1.50
2023-03-17T21:39:58.150Z,2.13
2023-03-17T21:42:25.319Z,1.83
2023-03-17T21:44:52.528Z,2.53
2023-03-17T21:47:19.901Z,2.23
2023-03-17T21:49:47.058Z,3.77
2023-03-17T21:52:15.069Z,2.73
2023-03-17T21:54:42.284Z,3.93
2023-03-17T21:57:09.311Z,4.77
2023-03-17T21:59:36.284Z,2.87
2023-03-17T22:02:03.631Z,3.33
2023-03-17T22:04:30.524Z,2.57
2023-03-17T22:06:58.917Z,2.63
2023-03-17T22:09:26.298Z,3.43
2023-03-17T22:11:53.219Z,3.97
2023-03-17T22:14:20.796Z,1.90
2023-03-17T22:16:50.323Z,2.23
2023-03-17T22:19:18.786Z,2.07
2023-03-17T22:21:48.115Z,1.60
2023-03-17T22:24:15.993Z,1.20
2023-03-17T22:26:43.186Z,2.43
2023-03-17T22:29:10.101Z,1.97
2023-03-17T22:31:36.984Z,2.67
2023-03-17T22:34:04.339Z,1.77
2023-03-17T22:36:31.412Z,1.67
2023-03-17T22:38:59.183Z,2.23
2023-03-17T22:41:29.398Z,1.07
2023-03-17T22:43:57.521Z,1.83
2023-03-17T22:46:25.105Z,2.37
2023-03-17T22:48:52.553Z,2.43
2023-03-17T22:51:22.154Z,1.87
2023-03-17T22:53:49.744Z,2.73
2023-03-17T22:56:17.782Z,1.10
2023-03-17T22:58:45.755Z,0.97
2023-03-17T23:01:13.917Z,1.50
2023-03-17T23:03:41.128Z,1.13
2023-03-17T23:06:09.058Z,1.67
2023-03-17T23:08:38.455Z,1.00
2023-03-17T23:11:10.591Z,2.17
2023-03-17T23:13:40.434Z,1.17
2023-03-17T23:16:08.720Z,1.70
2023-03-17T23:18:35.906Z,0.77
2023-03-17T23:21:04.185Z,1.23
2023-03-17T23:23:31.945Z,0.97
2023-03-17T23:25:59.234Z,1.27
2023-03-17T23:28:26.922Z,1.77
2023-03-17T23:30:54.150Z,1.47
2023-03-17T23:33:23.004Z,1.17
2023-03-17T23:35:51.596Z,2.67
2023-03-17T23:38:19.641Z,1.80
2023-03-17T23:40:47.771Z,1.60
2023-03-17T23:43:15.485Z,2.27
2023-03-17T23:45:42.836Z,2.10
2023-03-17T23:48:10.571Z,1.27
2023-03-17T23:50:40.444Z,1.87
2023-03-17T23:53:07.323Z,0.97
2023-03-17T23:55:34.955Z,0.67
2023-03-17T23:58:01.842Z,1.23
